Tubize, Belgium
Current Conditions -  °F | °C
As of 11:25 AM on Sunday 26 Oct 2014 (Local Time) from EBCV Reporting Station
Overcast Overcast  
Wind Chill: 55°   Ceiling: 4200
Heat Index: 55°   Visibility: 6mi
Dew Point: 54°   Wind: 8mph
Humidity: 94%   Direction: 200°SSW
Pressure: 30.27"   Gusts: NA
Location:  50.69°N, 4.2°E
Report Text: EBCV 260925Z AUTO 20007KT 9999 FEW016/// OVC042/// 13/12 Q1025 BLU
Loading
Personal Weather Stations






























Interactive Weather Map
Tropical Storm Tracking
New forecast layout! Learn more

10-Day Weather Forecast

Advertisements
Track Severe Weather on mobile